Time;durP1;ratioP1;P1;durP2;ratioP2;P2;SDS_P1;SDS_P2;PMS_P1;PMS_P2;Temp;Humidity;BMP_temperature;BMP_pressure;BME280_temperature;BME280_humidity;BME280_pressure;Samples;Min_cycle;Max_cycle;Signal;HPM_P1;HPM_P2
2024/01/24 00:01:20;;;;;;;43.47;21.00;;;0.00;99.90;;;;;;4227728;28;20264;-59
2024/01/24 00:03:21;;;;;;;46.47;21.73;;;-0.10;99.90;;;;;;4227796;28;20324;-59
2024/01/24 00:05:22;;;;;;;51.67;21.97;;;-0.10;99.90;;;;;;4227753;28;20305;-59
2024/01/24 00:07:23;;;;;;;45.70;22.57;;;0.00;99.90;;;;;;4227295;28;20801;-60
2024/01/24 00:09:25;;;;;;;39.80;20.13;;;-0.10;99.90;;;;;;4228047;28;20400;-60
2024/01/24 00:11:26;;;;;;;45.27;22.93;;;-0.10;99.90;;;;;;4227128;28;20797;-61
2024/01/24 00:13:27;;;;;;;40.83;19.33;;;-0.10;99.90;;;;;;4228168;28;20670;-60
2024/01/24 00:15:28;;;;;;;38.83;20.03;;;-0.20;99.90;;;;;;4227203;28;20268;-60
2024/01/24 00:17:30;;;;;;;47.27;21.30;;;-0.20;99.90;;;;;;4228239;28;20260;-60
2024/01/24 00:19:31;;;;;;;51.87;23.80;;;-0.20;99.90;;;;;;4227128;28;20317;-59
2024/01/24 00:21:32;;;;;;;45.93;22.73;;;-0.20;99.90;;;;;;4228192;28;20341;-58
2024/01/24 00:23:33;;;;;;;47.80;22.27;;;-0.20;99.90;;;;;;4227183;28;20258;-59
2024/01/24 00:25:35;;;;;;;45.60;22.27;;;-0.20;99.90;;;;;;4228606;28;20272;-58
2024/01/24 00:27:36;;;;;;;49.53;23.90;;;-0.20;99.90;;;;;;4227390;28;20337;-59
2024/01/24 00:29:37;;;;;;;46.17;23.60;;;-0.20;99.90;;;;;;4231998;27;20260;-60
2024/01/24 00:31:38;;;;;;;52.33;24.93;;;-0.20;99.90;;;;;;4230727;27;20310;-59
2024/01/24 00:33:40;;;;;;;49.93;23.97;;;-0.20;99.90;;;;;;4231532;28;20808;-58
2024/01/24 00:35:41;;;;;;;50.73;24.50;;;-0.20;99.90;;;;;;4230808;27;20260;-59
2024/01/24 00:37:42;;;;;;;51.23;24.00;;;-0.20;99.90;;;;;;4231081;27;20268;-59
2024/01/24 00:39:46;;;;;;;54.10;22.67;;;-0.20;99.90;;;;;;4231116;28;20305;-57
2024/01/24 00:41:47;;;;;;;51.90;22.97;;;-0.20;99.90;;;;;;4230611;28;20313;-58
2024/01/24 00:43:48;;;;;;;40.53;21.00;;;-0.20;99.90;;;;;;4231005;28;20276;-57
2024/01/24 00:45:50;;;;;;;45.90;22.50;;;-0.30;99.90;;;;;;4230165;27;20268;-58
2024/01/24 00:47:51;;;;;;;50.30;21.93;;;-0.40;99.90;;;;;;4231405;28;20309;-58
2024/01/24 00:49:52;;;;;;;43.73;22.10;;;-0.40;99.90;;;;;;4229819;28;20272;-57
2024/01/24 00:51:53;;;;;;;43.43;21.70;;;-0.40;99.90;;;;;;4231329;28;20727;-58
2024/01/24 00:53:54;;;;;;;48.37;22.37;;;-0.40;99.90;;;;;;4230521;27;20268;-60
2024/01/24 00:55:56;;;;;;;51.57;22.67;;;-0.50;99.90;;;;;;4231656;28;20267;-59
2024/01/24 00:57:58;;;;;;;49.63;23.30;;;-0.40;99.90;;;;;;4229997;27;20260;-60
2024/01/24 01:00:00;;;;;;;48.73;22.10;;;-0.50;99.90;;;;;;4231198;28;20317;-58
2024/01/24 01:02:02;;;;;;;46.90;22.93;;;-0.50;99.90;;;;;;4229990;28;20313;-60
2024/01/24 01:04:04;;;;;;;46.13;21.47;;;-0.50;99.90;;;;;;4231301;27;20310;-59
2024/01/24 01:06:06;;;;;;;49.97;25.00;;;-0.50;99.90;;;;;;4230049;28;20329;-59
2024/01/24 01:08:07;;;;;;;47.73;22.43;;;-0.50;99.90;;;;;;4230708;27;20767;-61
2024/01/24 01:10:09;;;;;;;48.30;21.40;;;-0.60;99.90;;;;;;4230489;28;20649;-60
2024/01/24 01:12:10;;;;;;;52.37;22.63;;;-0.60;99.90;;;;;;4230494;27;20260;-60
2024/01/24 01:14:11;;;;;;;53.60;24.63;;;-0.60;99.90;;;;;;4230957;27;20272;-60
2024/01/24 01:16:12;;;;;;;54.27;24.67;;;-0.70;99.90;;;;;;4230307;27;20264;-59
2024/01/24 01:18:13;;;;;;;55.87;23.60;;;-0.70;99.90;;;;;;4230744;28;20268;-60
2024/01/24 01:20:18;;;;;;;50.20;23.43;;;-0.70;99.90;;;;;;4229408;28;20284;-59
2024/01/24 01:22:20;;;;;;;62.20;25.90;;;-0.80;99.90;;;;;;4231051;27;20317;-59
2024/01/24 01:24:21;;;;;;;50.47;24.87;;;-0.80;99.90;;;;;;4229794;28;20268;-61
2024/01/24 01:26:22;;;;;;;49.20;24.07;;;-0.80;99.90;;;;;;4231022;28;20817;-56
2024/01/24 01:28:24;;;;;;;51.33;24.60;;;-0.80;99.90;;;;;;4229459;27;20280;-58
2024/01/24 01:30:25;;;;;;;47.63;22.43;;;-0.70;99.90;;;;;;4230740;27;20317;-61
2024/01/24 01:32:26;;;;;;;45.00;21.53;;;-0.80;99.90;;;;;;4229547;28;20739;-60
2024/01/24 01:34:27;;;;;;;49.10;22.17;;;-0.70;99.90;;;;;;4230629;28;20661;-60
2024/01/24 01:36:28;;;;;;;42.23;19.10;;;-0.70;99.90;;;;;;4229276;28;20283;-60
2024/01/24 01:38:29;;;;;;;37.87;18.33;;;-0.70;99.90;;;;;;4230448;27;20280;-57
2024/01/24 01:40:31;;;;;;;39.37;18.73;;;-0.70;99.90;;;;;;4229029;28;20315;-59
2024/01/24 01:42:32;;;;;;;48.00;20.70;;;-0.60;99.90;;;;;;4229988;28;20256;-60
2024/01/24 01:44:39;;;;;;;47.80;21.20;;;-0.70;99.90;;;;;;4229984;28;20263;-54
2024/01/24 01:46:41;;;;;;;41.90;19.80;;;-0.60;99.90;;;;;;4229823;28;20332;-60
2024/01/24 01:48:42;;;;;;;42.53;19.13;;;-0.60;99.90;;;;;;4223111;28;20321;-59
2024/01/24 01:50:44;;;;;;;41.93;19.97;;;-0.60;99.90;;;;;;4224375;28;20264;-60
2024/01/24 01:52:46;;;;;;;42.60;20.73;;;-0.50;99.90;;;;;;4230335;28;20264;-60
2024/01/24 01:54:49;;;;;;;47.00;21.57;;;-0.50;99.90;;;;;;4229037;28;20264;-60
2024/01/24 01:56:51;;;;;;;43.63;21.03;;;-0.40;99.90;;;;;;4230385;28;20317;-54
2024/01/24 01:58:52;;;;;;;45.10;20.67;;;-0.40;99.90;;;;;;4229070;27;20321;-60
2024/01/24 02:00:53;;;;;;;41.80;20.63;;;-0.40;99.90;;;;;;4230241;28;20268;-60
2024/01/24 02:02:55;;;;;;;42.53;20.27;;;-0.40;99.90;;;;;;4229065;28;20260;-61
2024/01/24 02:04:57;;;;;;;53.63;22.80;;;-0.40;99.90;;;;;;4230304;28;20276;-60
2024/01/24 02:07:00;;;;;;;44.87;22.47;;;-0.40;99.90;;;;;;4229194;27;20698;-61
2024/01/24 02:09:02;;;;;;;48.37;22.23;;;-0.40;99.90;;;;;;4230105;28;20761;-58
2024/01/24 02:11:04;;;;;;;47.27;22.27;;;-0.30;99.90;;;;;;4229244;28;21252;-60
2024/01/24 02:13:05;;;;;;;48.10;23.93;;;-0.40;99.90;;;;;;4229729;28;20338;-58
2024/01/24 02:15:10;;;;;;;45.27;23.23;;;-0.50;99.90;;;;;;4229125;28;20244;-59
2024/01/24 02:17:11;;;;;;;45.67;22.13;;;-0.60;99.90;;;;;;4229342;28;20276;-60
2024/01/24 02:19:12;;;;;;;49.27;24.07;;;-0.70;99.90;;;;;;4229232;28;20260;-59
2024/01/24 02:21:13;;;;;;;52.03;24.10;;;-0.70;99.90;;;;;;4229092;28;20816;-60
2024/01/24 02:23:22;;;;;;;49.30;25.43;;;-0.80;99.90;;;;;;4229452;28;20272;-59
2024/01/24 02:25:23;;;;;;;48.43;24.73;;;-0.80;99.90;;;;;;4229196;28;20723;-59
2024/01/24 02:27:24;;;;;;;53.60;24.17;;;-0.90;99.90;;;;;;4229473;28;20307;-60
2024/01/24 02:29:25;;;;;;;52.13;24.00;;;-0.90;99.90;;;;;;4228921;27;20264;-60
2024/01/24 02:31:27;;;;;;;48.53;23.37;;;-1.00;99.90;;;;;;4229735;28;20268;-60
2024/01/24 02:33:28;;;;;;;49.87;23.93;;;-1.00;99.90;;;;;;4228965;28;20674;-59
2024/01/24 02:35:29;;;;;;;49.93;23.00;;;-1.00;99.90;;;;;;4229824;28;20252;-60
2024/01/24 02:37:30;;;;;;;51.70;23.53;;;-1.10;99.90;;;;;;4228668;28;20727;-58
2024/01/24 02:39:31;;;;;;;48.33;23.23;;;-1.20;99.90;;;;;;4229574;28;20318;-58
2024/01/24 02:41:33;;;;;;;51.10;24.30;;;-1.20;99.90;;;;;;4228755;28;20264;-59
2024/01/24 02:43:35;;;;;;;43.27;21.50;;;-1.30;99.90;;;;;;4229703;27;20260;-60
2024/01/24 02:45:36;;;;;;;51.53;22.27;;;-1.30;99.90;;;;;;4228437;27;20309;-59
2024/01/24 02:47:39;;;;;;;48.27;23.50;;;-1.30;99.90;;;;;;4229359;28;20292;-54
2024/01/24 02:49:40;;;;;;;52.20;24.03;;;-1.30;99.90;;;;;;4228363;28;20305;-60
2024/01/24 02:51:42;;;;;;;51.07;23.93;;;-1.20;99.90;;;;;;4228337;28;20297;-60
2024/01/24 02:53:43;;;;;;;47.67;23.10;;;-1.30;99.90;;;;;;4228929;28;20317;-60
2024/01/24 02:55:45;;;;;;;47.23;22.37;;;-1.30;99.90;;;;;;4229067;28;20333;-60
2024/01/24 02:57:47;;;;;;;48.00;22.27;;;-1.30;99.90;;;;;;4228537;28;20268;-56
2024/01/24 02:59:48;;;;;;;52.40;22.77;;;-1.30;99.90;;;;;;4228680;27;20279;-59
2024/01/24 03:01:49;;;;;;;54.83;24.50;;;-1.30;99.90;;;;;;4229188;28;20291;-60
2024/01/24 03:03:51;;;;;;;52.20;24.17;;;-1.30;99.90;;;;;;4228145;28;20740;-59
2024/01/24 03:05:52;;;;;;;50.87;23.17;;;-1.40;99.90;;;;;;4229219;28;20294;-60
2024/01/24 03:07:53;;;;;;;51.23;25.00;;;-1.50;99.90;;;;;;4227850;28;20368;-59
2024/01/24 03:09:54;;;;;;;48.40;24.70;;;-1.60;99.90;;;;;;4229414;27;20264;-60
2024/01/24 03:11:55;;;;;;;54.03;25.83;;;-1.60;99.90;;;;;;4227680;28;20275;-60
2024/01/24 03:13:56;;;;;;;48.93;23.63;;;-1.60;99.90;;;;;;4229181;27;20272;-60
2024/01/24 03:16:00;;;;;;;56.83;26.10;;;-1.60;99.90;;;;;;4227954;28;20272;-60
2024/01/24 03:18:01;;;;;;;55.10;25.10;;;-1.60;99.90;;;;;;4228857;28;20259;-58
2024/01/24 03:20:03;;;;;;;50.63;24.30;;;-1.60;99.90;;;;;;4227819;28;20797;-57
2024/01/24 03:22:04;;;;;;;55.23;27.00;;;-1.60;99.90;;;;;;4211855;28;20682;-60
2024/01/24 03:24:06;;;;;;;56.00;24.00;;;-1.60;99.90;;;;;;4210922;28;20260;-59
2024/01/24 03:26:07;;;;;;;51.30;25.27;;;-1.60;99.90;;;;;;4215869;28;20298;-60
2024/01/24 03:28:09;;;;;;;56.23;24.53;;;-1.60;99.90;;;;;;4228021;28;20321;-60
2024/01/24 03:30:10;;;;;;;54.47;25.50;;;-1.60;99.90;;;;;;4228188;28;20255;-60
2024/01/24 03:32:12;;;;;;;54.10;25.20;;;-1.70;99.90;;;;;;4228725;28;20670;-60
2024/01/24 03:34:13;;;;;;;46.53;23.10;;;-1.70;99.90;;;;;;4227669;28;20642;-61
2024/01/24 03:36:14;;;;;;;53.73;25.30;;;-1.70;99.90;;;;;;4228830;27;20789;-60
2024/01/24 03:38:15;;;;;;;52.87;24.73;;;-1.60;99.90;;;;;;4227809;27;20321;-58
2024/01/24 03:40:16;;;;;;;55.60;27.03;;;-1.60;99.90;;;;;;4227465;28;20269;-60
2024/01/24 03:42:18;;;;;;;54.23;25.37;;;-1.60;99.90;;;;;;4227253;28;20276;-62
2024/01/24 03:44:20;;;;;;;50.43;24.03;;;-1.60;99.90;;;;;;4228405;28;20294;-60
2024/01/24 03:46:21;;;;;;;55.63;25.50;;;-1.60;99.90;;;;;;4227257;28;20313;-61
2024/01/24 03:48:22;;;;;;;51.23;25.27;;;-1.60;99.90;;;;;;4228490;28;20329;-58
2024/01/24 03:50:23;;;;;;;48.93;24.40;;;-1.60;99.90;;;;;;4226975;28;21173;-60
2024/01/24 03:52:24;;;;;;;51.00;24.53;;;-1.50;99.90;;;;;;4228339;27;20712;-60
2024/01/24 03:54:25;;;;;;;54.00;24.57;;;-1.50;99.90;;;;;;4227576;27;20298;-60
2024/01/24 03:56:27;;;;;;;50.43;23.93;;;-1.50;99.90;;;;;;4228427;28;20268;-59
2024/01/24 03:58:28;;;;;;;54.83;26.23;;;-1.50;99.90;;;;;;4226970;28;20249;-59
2024/01/24 04:00:29;;;;;;;49.80;23.63;;;-1.60;99.90;;;;;;4227248;28;20260;-57
2024/01/24 04:02:30;;;;;;;50.20;23.90;;;-1.60;99.90;;;;;;4227501;27;20268;-58
2024/01/24 04:04:31;;;;;;;49.33;23.97;;;-1.50;99.90;;;;;;4227068;28;20283;-60
2024/01/24 04:06:32;;;;;;;50.73;23.93;;;-1.60;99.90;;;;;;4228321;27;20329;-60
2024/01/24 04:08:34;;;;;;;56.73;24.97;;;-1.60;99.90;;;;;;4226942;28;20748;-58
2024/01/24 04:10:35;;;;;;;53.77;24.70;;;-1.60;99.90;;;;;;4227773;28;20670;-60
2024/01/24 04:12:36;;;;;;;53.07;26.30;;;-1.60;99.90;;;;;;4227052;28;20264;-60
2024/01/24 04:14:37;;;;;;;56.23;26.17;;;-1.60;99.90;;;;;;4228473;28;20670;-60
2024/01/24 04:16:39;;;;;;;53.77;24.93;;;-1.70;99.90;;;;;;4227259;28;20682;-59
2024/01/24 04:18:40;;;;;;;54.73;25.40;;;-1.70;99.90;;;;;;4228488;28;20801;-60
2024/01/24 04:20:41;;;;;;;65.17;26.40;;;-1.70;99.90;;;;;;4227156;28;20666;-61
2024/01/24 04:22:43;;;;;;;52.97;24.07;;;-1.70;99.90;;;;;;4228395;28;20284;-62
2024/01/24 04:24:46;;;;;;;48.87;23.53;;;-1.70;99.90;;;;;;4227035;28;20280;-58
2024/01/24 04:26:47;;;;;;;50.27;24.13;;;-1.60;99.90;;;;;;4228653;28;20295;-60
2024/01/24 04:28:48;;;;;;;54.90;26.37;;;-1.70;99.90;;;;;;4226972;28;20353;-60
2024/01/24 04:30:49;;;;;;;55.93;24.03;;;-1.60;99.90;;;;;;4227216;28;20677;-61
2024/01/24 04:32:51;;;;;;;49.90;25.23;;;-1.60;99.90;;;;;;4227351;28;20313;-61
2024/01/24 04:34:52;;;;;;;47.70;23.00;;;-1.60;99.90;;;;;;4227450;28;20264;-61
2024/01/24 04:36:56;;;;;;;53.90;25.07;;;-1.60;99.90;;;;;;4227383;28;20267;-61
2024/01/24 04:38:57;;;;;;;55.17;25.60;;;-1.50;99.90;;;;;;4227239;28;20272;-62
2024/01/24 04:40:58;;;;;;;44.40;22.63;;;-1.60;99.90;;;;;;4228079;28;20268;-60
2024/01/24 04:42:59;;;;;;;57.57;25.00;;;-1.60;99.90;;;;;;4226622;28;20330;-57
2024/01/24 04:45:00;;;;;;;54.30;25.27;;;-1.50;99.90;;;;;;4228294;28;20826;-61
2024/01/24 04:47:02;;;;;;;51.73;26.43;;;-1.50;99.90;;;;;;4226659;28;20759;-61
2024/01/24 04:49:03;;;;;;;63.77;27.07;;;-1.50;99.90;;;;;;4227811;28;21023;-61
2024/01/24 04:51:04;;;;;;;53.10;26.17;;;-1.50;99.90;;;;;;4226716;28;20756;-61
2024/01/24 04:53:05;;;;;;;47.00;23.47;;;-1.50;99.90;;;;;;4228191;28;20321;-60
2024/01/24 04:55:12;;;;;;;47.53;23.73;;;-1.50;99.90;;;;;;4226511;28;20264;-59
2024/01/24 04:57:14;;;;;;;46.43;22.40;;;-1.50;99.90;;;;;;4228384;28;20272;-60
2024/01/24 04:59:15;;;;;;;46.47;23.60;;;-1.50;99.90;;;;;;4226475;28;20264;-62
2024/01/24 05:01:16;;;;;;;54.37;24.80;;;-1.40;99.90;;;;;;4227648;28;20264;-60
2024/01/24 05:03:17;;;;;;;50.17;22.77;;;-1.50;99.90;;;;;;4226849;28;20731;-61
2024/01/24 05:05:19;;;;;;;52.20;24.90;;;-1.50;99.90;;;;;;4227280;28;20271;-60
2024/01/24 05:07:20;;;;;;;53.33;22.83;;;-1.60;99.90;;;;;;4225795;28;20285;-61
2024/01/24 05:09:21;;;;;;;51.00;24.33;;;-1.60;99.90;;;;;;4227135;28;20268;-61
2024/01/24 05:11:22;;;;;;;51.30;23.13;;;-1.70;99.90;;;;;;4227365;28;20508;-59
2024/01/24 05:13:23;;;;;;;52.30;24.17;;;-1.70;99.90;;;;;;4226523;28;20267;-60
2024/01/24 05:15:24;;;;;;;46.67;23.20;;;-1.80;99.90;;;;;;4228954;28;20333;-59
2024/01/24 05:17:25;;;;;;;52.30;23.67;;;-1.90;99.90;;;;;;4229742;28;20650;-60
2024/01/24 05:19:27;;;;;;;53.73;23.80;;;-1.90;99.90;;;;;;4231192;28;20260;-60
2024/01/24 05:21:28;;;;;;;51.90;23.57;;;-1.90;99.90;;;;;;4229154;27;20348;-60
2024/01/24 05:23:30;;;;;;;55.63;25.60;;;-2.00;99.90;;;;;;4230680;28;20280;-60
2024/01/24 05:25:31;;;;;;;53.50;25.67;;;-2.00;99.90;;;;;;4229288;28;20264;-61
2024/01/24 05:27:32;;;;;;;58.67;25.70;;;-2.00;99.90;;;;;;4230072;28;20841;-59
2024/01/24 05:29:33;;;;;;;52.90;25.90;;;-2.10;99.90;;;;;;4229742;28;20626;-59
2024/01/24 05:31:34;;;;;;;58.33;26.67;;;-2.10;99.90;;;;;;4229745;28;20268;-60
2024/01/24 05:33:36;;;;;;;62.33;26.77;;;-2.20;99.90;;;;;;4229443;27;20383;-60
2024/01/24 05:35:37;;;;;;;49.47;24.00;;;-2.30;99.90;;;;;;4229382;28;20344;-60
2024/01/24 05:37:38;;;;;;;55.47;24.53;;;-2.40;99.90;;;;;;4225162;28;20264;-61
2024/01/24 05:39:41;;;;;;;49.53;24.13;;;-2.50;99.90;;;;;;4230267;27;20260;-62
2024/01/24 05:41:44;;;;;;;50.40;24.10;;;-2.60;99.90;;;;;;4229923;28;20704;-61
2024/01/24 05:43:45;;;;;;;50.73;21.73;;;-2.70;99.90;;;;;;4229656;27;20272;-60
2024/01/24 05:45:50;;;;;;;47.97;23.63;;;-2.70;99.90;;;;;;4230190;28;20272;-60
2024/01/24 05:47:52;;;;;;;60.80;23.97;;;-2.70;99.90;;;;;;4225265;28;20289;-60
2024/01/24 05:49:53;;;;;;;59.77;25.87;;;-2.60;99.90;;;;;;4213244;28;20264;-60
2024/01/24 05:51:55;;;;;;;58.37;25.73;;;-2.60;99.90;;;;;;4212276;28;20257;-61
2024/01/24 05:53:56;;;;;;;67.07;30.07;;;-2.60;99.90;;;;;;4214947;28;20345;-59
2024/01/24 05:55:57;;;;;;;69.77;31.83;;;-2.50;99.90;;;;;;4229097;28;20344;-57
2024/01/24 05:57:58;;;;;;;77.70;36.17;;;-2.50;99.90;;;;;;4230040;28;20358;-60
2024/01/24 05:59:59;;;;;;;74.70;35.80;;;-2.50;99.90;;;;;;4228861;28;20268;-61
2024/01/24 06:02:00;;;;;;;70.90;33.93;;;-2.50;99.90;;;;;;4228878;27;20675;-61
2024/01/24 06:04:02;;;;;;;70.10;30.97;;;-2.50;99.90;;;;;;4229054;27;20329;-59
2024/01/24 06:06:03;;;;;;;69.37;31.50;;;-2.50;99.90;;;;;;4229818;27;20275;-61
2024/01/24 06:08:05;;;;;;;74.00;33.40;;;-2.60;99.90;;;;;;4228719;27;20364;-60
2024/01/24 06:10:07;;;;;;;72.00;31.83;;;-2.50;99.90;;;;;;4229491;28;20271;-57
2024/01/24 06:12:08;;;;;;;66.07;31.53;;;-2.50;99.90;;;;;;4229344;27;20248;-56
2024/01/24 06:14:10;;;;;;;66.10;29.60;;;-2.50;99.90;;;;;;4229146;28;20252;-61
2024/01/24 06:16:11;;;;;;;69.97;30.13;;;-2.60;99.90;;;;;;4229606;28;20646;-59
2024/01/24 06:18:12;;;;;;;68.70;32.83;;;-2.60;99.90;;;;;;4228953;28;20272;-61
2024/01/24 06:20:14;;;;;;;66.40;31.97;;;-2.60;99.90;;;;;;4229638;28;20731;-61
2024/01/24 06:22:15;;;;;;;80.27;35.60;;;-2.50;99.90;;;;;;4228088;28;20268;-59
2024/01/24 06:24:17;;;;;;;67.53;32.43;;;-2.50;99.90;;;;;;4229855;28;20661;-61
2024/01/24 06:26:18;;;;;;;73.10;34.43;;;-2.50;99.90;;;;;;4228180;28;20324;-63
2024/01/24 06:28:19;;;;;;;69.13;31.87;;;-2.50;99.90;;;;;;4230042;27;20308;-60
2024/01/24 06:30:21;;;;;;;75.80;32.77;;;-2.40;99.90;;;;;;4228542;28;20837;-59
2024/01/24 06:32:22;;;;;;;68.50;29.90;;;-2.40;99.90;;;;;;4222516;28;20260;-60
2024/01/24 06:34:23;;;;;;;61.93;28.27;;;-2.30;99.90;;;;;;4221282;28;20261;-56
2024/01/24 06:36:25;;;;;;;64.53;30.43;;;-2.20;99.90;;;;;;4212712;28;20303;-59
2024/01/24 06:38:26;;;;;;;62.20;30.73;;;-2.20;99.90;;;;;;4218052;28;20264;-59
2024/01/24 06:40:27;;;;;;;59.77;28.17;;;-2.20;99.90;;;;;;4228965;28;20739;-57
2024/01/24 06:42:28;;;;;;;66.40;30.90;;;-2.10;99.90;;;;;;4228314;28;20293;-62
2024/01/24 06:44:30;;;;;;;63.20;30.60;;;-2.10;99.90;;;;;;4215734;28;20690;-62
2024/01/24 06:46:39;;;;;;;68.27;32.07;;;-2.10;99.90;;;;;;4211818;28;20781;-60
2024/01/24 06:48:41;;;;;;;70.97;31.10;;;-2.00;99.90;;;;;;4211984;28;20336;-61
2024/01/24 06:50:42;;;;;;;66.90;31.23;;;-1.90;99.90;;;;;;4214622;28;20809;-59
2024/01/24 06:52:44;;;;;;;59.87;28.30;;;-1.80;99.90;;;;;;4224492;28;20260;-58
2024/01/24 06:54:45;;;;;;;59.97;29.93;;;-1.80;99.90;;;;;;4229041;28;20313;-61
2024/01/24 06:56:47;;;;;;;61.30;31.17;;;-1.80;99.90;;;;;;4227682;28;20321;-62
2024/01/24 06:58:48;;;;;;;60.13;29.43;;;-1.90;99.90;;;;;;4219796;28;20691;-62
2024/01/24 07:00:49;;;;;;;63.07;29.87;;;-1.70;99.90;;;;;;4209664;28;20429;-62
2024/01/24 07:02:51;;;;;;;63.80;30.60;;;-1.50;99.90;;;;;;4211342;28;20261;-61
2024/01/24 07:04:52;;;;;;;62.17;31.30;;;-1.40;99.90;;;;;;4209885;28;20268;-60
2024/01/24 07:06:53;;;;;;;51.33;26.03;;;-1.20;99.90;;;;;;4211198;28;20264;-61
2024/01/24 07:08:54;;;;;;;51.97;26.83;;;-1.10;99.90;;;;;;4211177;28;20304;-61
2024/01/24 07:10:55;;;;;;;57.57;28.07;;;-1.00;99.90;;;;;;4211870;28;20410;-62
2024/01/24 07:12:57;;;;;;;51.67;26.83;;;-1.00;99.90;;;;;;4210154;28;20310;-61
2024/01/24 07:14:58;;;;;;;52.47;26.47;;;-0.60;99.90;;;;;;4212078;28;20272;-61
2024/01/24 07:17:00;;;;;;;57.43;27.80;;;-0.40;99.90;;;;;;4211262;28;20260;-59
2024/01/24 07:19:01;;;;;;;56.07;26.73;;;-0.10;99.90;;;;;;4211692;28;20256;-62
2024/01/24 07:21:06;;;;;;;58.97;29.03;;;-0.10;99.90;;;;;;4210680;28;20333;-63
2024/01/24 07:23:08;;;;;;;58.07;27.70;;;0.20;99.90;;;;;;4210969;28;20330;-61
2024/01/24 07:25:09;;;;;;;57.57;29.20;;;0.40;99.90;;;;;;4211928;28;20257;-62
2024/01/24 07:27:10;;;;;;;57.53;29.97;;;0.50;99.90;;;;;;4210459;28;20821;-61
2024/01/24 07:29:11;;;;;;;55.07;28.93;;;0.60;99.90;;;;;;4223207;28;20288;-62
2024/01/24 07:31:13;;;;;;;60.10;29.73;;;0.60;99.90;;;;;;4227400;28;20321;-62
2024/01/24 07:33:14;;;;;;;51.97;28.93;;;0.80;99.90;;;;;;4228672;27;20337;-58
2024/01/24 07:35:15;;;;;;;57.67;28.47;;;0.90;99.90;;;;;;4227733;28;20280;-61
2024/01/24 07:37:16;;;;;;;62.80;33.47;;;0.80;99.90;;;;;;4228388;28;20666;-60
2024/01/24 07:39:17;;;;;;;56.33;29.23;;;0.70;99.90;;;;;;4227909;28;20276;-61
2024/01/24 07:41:18;;;;;;;59.97;30.57;;;0.50;99.90;;;;;;4228148;28;20622;-60
2024/01/24 07:43:21;;;;;;;60.20;30.80;;;0.70;99.90;;;;;;4227020;28;20272;-60
2024/01/24 07:45:22;;;;;;;51.50;27.63;;;0.80;99.90;;;;;;4228528;28;20260;-59
2024/01/24 07:47:24;;;;;;;58.37;29.10;;;0.70;99.90;;;;;;4227099;28;20324;-60
2024/01/24 07:49:25;;;;;;;54.43;28.27;;;0.80;99.90;;;;;;4227871;28;20305;-61
2024/01/24 07:51:26;;;;;;;56.27;28.43;;;1.00;99.90;;;;;;4227486;28;20284;-61
2024/01/24 07:53:27;;;;;;;56.53;28.70;;;1.40;99.90;;;;;;4227834;28;20630;-61
2024/01/24 07:55:28;;;;;;;56.10;28.50;;;1.90;99.90;;;;;;4227923;28;20268;-59
2024/01/24 07:57:30;;;;;;;54.10;27.87;;;2.40;99.90;;;;;;4227357;28;20271;-61
2024/01/24 07:59:31;;;;;;;53.60;28.00;;;2.60;99.90;;;;;;4213635;28;20285;-63
2024/01/24 08:01:32;;;;;;;60.80;31.07;;;2.70;99.90;;;;;;4210557;28;20260;-61
2024/01/24 08:03:33;;;;;;;58.40;31.30;;;2.80;99.90;;;;;;4211619;28;20334;-61
2024/01/24 08:05:35;;;;;;;61.87;30.03;;;2.90;99.90;;;;;;4210116;28;20261;-61
2024/01/24 08:07:36;;;;;;;57.57;31.33;;;2.90;99.90;;;;;;4211490;28;20257;-61
2024/01/24 08:09:38;;;;;;;62.80;30.93;;;2.80;99.90;;;;;;4210532;28;20318;-61
2024/01/24 08:11:39;;;;;;;58.30;30.57;;;2.70;99.90;;;;;;4210994;28;20735;-59
2024/01/24 08:13:41;;;;;;;57.20;29.00;;;2.30;99.90;;;;;;4210439;28;20908;-61
2024/01/24 08:15:42;;;;;;;60.37;29.00;;;2.00;99.90;;;;;;4211701;28;20264;-64
2024/01/24 08:17:43;;;;;;;59.97;29.63;;;1.70;99.90;;;;;;4210190;28;20372;-60
2024/01/24 08:19:44;;;;;;;62.67;31.47;;;1.50;99.90;;;;;;4210853;28;20325;-65
2024/01/24 08:21:46;;;;;;;55.27;29.50;;;1.40;99.90;;;;;;4209887;28;20345;-57
2024/01/24 08:23:47;;;;;;;58.00;29.87;;;1.40;99.90;;;;;;4218324;28;20260;-62
2024/01/24 08:25:48;;;;;;;60.97;29.53;;;1.60;99.90;;;;;;4227284;28;20256;-63
2024/01/24 08:27:50;;;;;;;59.73;29.90;;;1.80;99.90;;;;;;4227327;28;20284;-60
2024/01/24 08:29:52;;;;;;;57.00;28.70;;;2.00;99.90;;;;;;4227675;28;20645;-65
2024/01/24 08:31:53;;;;;;;59.23;27.93;;;1.90;99.90;;;;;;4225911;28;20318;-75
2024/01/24 08:33:54;;;;;;;62.17;29.43;;;2.10;99.90;;;;;;4227909;28;20264;-65
2024/01/24 08:35:55;;;;;;;66.87;32.27;;;2.00;99.90;;;;;;4226424;28;20292;-64
2024/01/24 08:37:57;;;;;;;56.23;29.00;;;1.70;99.90;;;;;;4227983;28;20669;-63
2024/01/24 08:39:58;;;;;;;59.80;28.30;;;1.50;99.90;;;;;;4225642;28;20377;-58
2024/01/24 08:42:00;;;;;;;51.17;27.40;;;1.50;99.90;;;;;;4227682;28;20325;-61
2024/01/24 08:44:02;;;;;;;57.23;25.97;;;1.50;99.90;;;;;;4226692;28;20267;-62
2024/01/24 08:46:03;;;;;;;57.87;28.90;;;1.60;99.90;;;;;;4227934;28;20328;-61
2024/01/24 08:48:05;;;;;;;54.37;26.57;;;1.80;99.90;;;;;;4226818;28;20303;-60
2024/01/24 08:50:07;;;;;;;54.73;26.37;;;1.70;99.90;;;;;;4230827;28;20325;-61
2024/01/24 08:52:08;;;;;;;51.33;25.73;;;1.60;99.90;;;;;;4229623;28;20360;-61
2024/01/24 08:54:11;;;;;;;51.90;26.03;;;1.50;99.90;;;;;;4230949;28;20268;-60
2024/01/24 08:56:12;;;;;;;52.40;26.30;;;1.50;99.90;;;;;;4230413;27;20268;-61
2024/01/24 08:58:13;;;;;;;55.20;28.23;;;1.50;99.90;;;;;;4230738;28;20260;-62
2024/01/24 09:00:15;;;;;;;58.97;27.47;;;1.50;99.90;;;;;;4230235;28;20253;-62
2024/01/24 09:02:16;;;;;;;58.97;29.07;;;1.60;99.90;;;;;;4230902;27;20328;-62
2024/01/24 09:04:17;;;;;;;53.40;26.23;;;1.70;99.90;;;;;;4231005;28;20318;-61
2024/01/24 09:06:20;;;;;;;51.47;26.67;;;1.80;99.90;;;;;;4229835;27;20321;-61
2024/01/24 09:08:21;;;;;;;53.50;25.07;;;1.80;99.90;;;;;;4230885;28;20783;-62
2024/01/24 09:10:22;;;;;;;50.87;25.97;;;1.60;99.90;;;;;;4229830;28;20265;-59
2024/01/24 09:12:23;;;;;;;48.70;24.53;;;1.50;99.90;;;;;;4230682;28;20317;-62
2024/01/24 09:14:25;;;;;;;47.90;23.97;;;1.70;99.90;;;;;;4229594;28;20708;-62
2024/01/24 09:16:26;;;;;;;47.63;24.80;;;1.90;99.90;;;;;;4230749;28;20762;-61
2024/01/24 09:18:27;;;;;;;37.10;20.90;;;2.00;99.90;;;;;;4229788;28;20681;-62
2024/01/24 09:20:28;;;;;;;41.80;21.40;;;2.00;99.90;;;;;;4230969;28;20309;-63
2024/01/24 09:22:30;;;;;;;40.37;20.87;;;2.00;99.90;;;;;;4229370;28;20279;-63
2024/01/24 09:24:31;;;;;;;39.53;20.63;;;2.10;99.90;;;;;;4230732;28;20275;-64
2024/01/24 09:26:32;;;;;;;39.63;21.07;;;2.10;99.90;;;;;;4229700;28;20665;-62
2024/01/24 09:28:33;;;;;;;44.93;21.87;;;2.10;99.90;;;;;;4230478;28;20291;-62
2024/01/24 09:30:35;;;;;;;37.43;20.87;;;2.10;99.90;;;;;;4229759;28;20256;-63
2024/01/24 09:32:36;;;;;;;39.23;20.50;;;2.10;99.90;;;;;;4229814;28;20276;-63
2024/01/24 09:34:37;;;;;;;44.97;20.90;;;2.10;99.90;;;;;;4230293;27;20268;-62
2024/01/24 09:36:38;;;;;;;42.37;20.50;;;2.20;99.90;;;;;;4229670;28;20276;-62
2024/01/24 09:38:44;;;;;;;44.17;23.63;;;2.30;99.90;;;;;;4230066;28;20264;-61
2024/01/24 09:40:45;;;;;;;36.30;20.20;;;2.40;99.90;;;;;;4229342;28;20260;-63
2024/01/24 09:42:47;;;;;;;47.20;23.87;;;2.40;99.90;;;;;;4230130;28;20734;-60
2024/01/24 09:44:51;;;;;;;42.90;22.03;;;2.40;99.90;;;;;;4229228;28;20316;-62
2024/01/24 09:46:53;;;;;;;44.73;21.33;;;2.30;99.90;;;;;;4229074;27;20402;-62
2024/01/24 09:48:55;;;;;;;45.30;21.50;;;2.20;99.90;;;;;;4229052;28;20291;-62
2024/01/24 09:50:56;;;;;;;42.53;20.93;;;2.10;99.90;;;;;;4230143;28;20264;-61
2024/01/24 09:52:58;;;;;;;39.27;22.07;;;2.10;99.90;;;;;;4229023;28;20640;-62
2024/01/24 09:55:04;;;;;;;42.07;22.13;;;1.90;99.90;;;;;;4228990;28;20280;-61
2024/01/24 09:57:06;;;;;;;45.23;22.53;;;1.80;99.90;;;;;;4229210;28;20272;-61
2024/01/24 09:59:08;;;;;;;46.20;22.93;;;1.70;99.90;;;;;;4230787;27;20276;-60
2024/01/24 10:01:12;;;;;;;43.50;24.97;;;1.60;99.90;;;;;;4228296;28;20268;-61
2024/01/24 10:03:13;;;;;;;45.80;23.43;;;1.60;99.90;;;;;;4230119;27;20325;-60
2024/01/24 10:05:20;;;;;;;43.13;23.87;;;1.80;99.90;;;;;;4220021;27;20287;-60
2024/01/24 10:07:21;;;;;;;40.90;22.80;;;1.80;99.90;;;;;;4229180;28;20272;-66
2024/01/24 10:09:22;;;;;;;43.37;23.10;;;1.70;99.90;;;;;;4228698;28;20292;-64
2024/01/24 10:11:25;;;;;;;41.50;21.07;;;1.70;99.90;;;;;;4229159;28;20264;-61
2024/01/24 10:13:26;;;;;;;46.30;23.60;;;1.70;99.90;;;;;;4229095;28;20260;-61
2024/01/24 10:15:28;;;;;;;40.47;22.23;;;1.80;99.90;;;;;;4228459;28;20789;-61
2024/01/24 10:17:30;;;;;;;43.87;22.83;;;1.90;99.90;;;;;;4229796;28;20260;-62
2024/01/24 10:19:31;;;;;;;41.20;23.27;;;1.80;99.90;;;;;;4229090;27;20272;-63